Time;durP1;ratioP1;P1;durP2;ratioP2;P2;SDS_P1;SDS_P2;PMS_P1;PMS_P2;Temp;Humidity;BMP_temperature;BMP_pressure;BME280_temperature;BME280_humidity;BME280_pressure;Samples;Min_cycle;Max_cycle;Signal;HPM_P1;HPM_P2
2022/06/24 00:00:10;;;;;;;0.30;0.30;;;22.30;89.80;;;;;;5074701;28;20048;-80
2022/06/24 00:02:37;;;;;;;0.20;0.20;;;22.20;90.30;;;;;;5074939;28;20048;-81
2022/06/24 00:05:07;;;;;;;0.25;0.25;;;22.10;90.70;;;;;;5074681;28;20057;-79
2022/06/24 00:07:45;;;;;;;0.20;0.20;;;22.00;90.20;;;;;;5074956;28;20048;-81
2022/06/24 00:10:12;;;;;;;0.20;0.20;;;22.00;90.60;;;;;;5074923;28;20401;-79
2022/06/24 00:12:38;;;;;;;0.30;0.30;;;21.90;90.60;;;;;;5074677;28;20048;-78
2022/06/24 00:15:04;;;;;;;0.20;0.20;;;21.90;90.80;;;;;;5074720;28;20045;-78
2022/06/24 00:17:32;;;;;;;0.20;0.20;;;21.80;90.80;;;;;;5074930;28;20130;-78
2022/06/24 00:20:00;;;;;;;0.25;0.25;;;21.80;90.90;;;;;;5056926;28;20044;-79
2022/06/24 00:22:28;;;;;;;2.28;0.30;;;21.70;91.10;;;;;;5074268;28;20547;-79
2022/06/24 00:25:11;;;;;;;0.32;0.32;;;21.70;91.10;;;;;;5074505;28;20419;-78
2022/06/24 00:27:37;;;;;;;0.50;0.50;;;21.60;91.40;;;;;;5074841;28;20052;-79
2022/06/24 00:30:11;;;;;;;0.20;0.20;;;21.60;91.70;;;;;;5074232;28;20071;-79
2022/06/24 00:32:37;;;;;;;0.20;0.20;;;21.60;91.90;;;;;;5074620;28;20044;-78
2022/06/24 00:35:15;;;;;;;0.20;0.20;;;21.50;92.60;;;;;;5074404;28;20041;-78
2022/06/24 00:37:42;;;;;;;0.30;0.30;;;21.50;92.50;;;;;;5074295;28;20036;-79
2022/06/24 00:40:10;;;;;;;0.35;0.30;;;21.40;93.30;;;;;;5074676;28;20128;-78
2022/06/24 00:42:43;;;;;;;0.20;0.20;;;21.30;94.10;;;;;;5074177;28;20056;-79
2022/06/24 00:45:18;;;;;;;0.20;0.20;;;21.30;93.30;;;;;;5073906;28;20040;-78
2022/06/24 00:47:45;;;;;;;0.30;0.30;;;21.20;93.90;;;;;;5074141;28;20044;-79
2022/06/24 00:50:32;;;;;;;0.20;0.20;;;21.20;93.40;;;;;;5073911;28;20041;-79
2022/06/24 00:53:00;;;;;;;0.40;0.40;;;21.20;93.90;;;;;;5074009;28;20044;-79
2022/06/24 00:55:29;;;;;;;0.28;0.28;;;21.10;93.70;;;;;;5073950;28;20400;-79
2022/06/24 00:57:56;;;;;;;0.30;0.30;;;21.10;93.90;;;;;;5073838;28;20041;-79
2022/06/24 01:00:27;;;;;;;0.25;0.25;;;21.10;93.00;;;;;;5073849;28;20055;-79
2022/06/24 01:03:14;;;;;;;0.20;0.20;;;21.10;92.80;;;;;;5073853;28;20155;-79
2022/06/24 01:05:40;;;;;;;0.20;0.20;;;21.20;92.80;;;;;;5073627;28;20059;-79
2022/06/24 01:08:08;;;;;;;0.20;0.20;;;21.20;93.10;;;;;;5074231;28;20052;-79
2022/06/24 01:10:34;;;;;;;0.30;0.30;;;21.20;92.30;;;;;;5073454;28;20041;-79
2022/06/24 01:13:00;;;;;;;0.30;0.30;;;21.20;92.20;;;;;;5073353;28;20118;-79
2022/06/24 01:15:26;;;;;;;0.30;0.30;;;21.20;91.90;;;;;;5074179;28;20044;-79
2022/06/24 01:17:52;;;;;;;0.43;0.43;;;21.10;91.50;;;;;;5073740;28;20089;-79
2022/06/24 01:20:18;;;;;;;0.30;0.30;;;21.20;91.40;;;;;;5073608;28;20090;-78
2022/06/24 01:22:43;;;;;;;0.30;0.30;;;21.20;91.70;;;;;;5073617;28;20132;-79
2022/06/24 01:25:11;;;;;;;0.30;0.30;;;21.20;91.50;;;;;;5073820;28;20131;-79
2022/06/24 01:27:37;;;;;;;0.30;0.30;;;21.20;91.50;;;;;;5073444;28;20045;-79
2022/06/24 01:30:03;;;;;;;;;;;21.20;91.20;;;;;;5074465;28;20396;-79
2022/06/24 01:32:29;;;;;;;0.30;0.30;;;21.20;91.40;;;;;;5073503;28;20415;-79
2022/06/24 01:34:56;;;;;;;0.30;0.30;;;21.20;91.90;;;;;;5055711;28;20048;-79
2022/06/24 01:37:22;;;;;;;0.30;0.30;;;21.20;91.40;;;;;;5073448;28;20495;-79
2022/06/24 01:39:48;;;;;;;;;;;21.20;91.60;;;;;;5073982;28;20048;-79
2022/06/24 01:42:13;;;;;;;0.20;0.20;;;21.10;91.90;;;;;;5073481;28;20292;-79
2022/06/24 01:44:39;;;;;;;0.20;0.20;;;21.10;91.60;;;;;;5073571;28;20048;-79
2022/06/24 01:47:05;;;;;;;0.20;0.20;;;21.10;91.80;;;;;;5073818;28;20473;-77
2022/06/24 01:49:30;;;;;;;0.30;0.30;;;21.00;91.70;;;;;;5073296;28;20054;-78
2022/06/24 01:51:59;;;;;;;0.30;0.30;;;21.00;92.10;;;;;;5073469;28;20127;-79
2022/06/24 01:54:24;;;;;;;0.30;0.30;;;20.90;91.50;;;;;;5073352;28;20124;-78
2022/06/24 01:56:50;;;;;;;0.30;0.30;;;21.00;92.30;;;;;;5073451;28;20132;-77
2022/06/24 01:59:15;;;;;;;0.20;0.20;;;20.90;92.80;;;;;;5073461;28;20127;-78
2022/06/24 02:01:42;;;;;;;0.20;0.20;;;20.90;93.00;;;;;;5073458;28;20102;-78
2022/06/24 02:04:09;;;;;;;0.20;0.20;;;20.80;92.50;;;;;;5073360;28;20370;-78
2022/06/24 02:06:34;;;;;;;;;;;20.80;92.30;;;;;;5073718;28;20044;-77
2022/06/24 02:09:00;;;;;;;0.65;0.45;;;20.70;92.90;;;;;;5073266;28;20269;-78
2022/06/24 02:14:11;;;;;;;0.30;0.30;;;20.70;92.70;;;;;;5042169;28;20447;-79
2022/06/24 02:16:37;;;;;;;0.30;0.30;;;20.60;93.10;;;;;;5055523;28;20076;-78
2022/06/24 02:19:04;;;;;;;0.30;0.30;;;20.60;93.50;;;;;;5073182;28;20052;-78
2022/06/24 02:21:30;;;;;;;0.20;0.20;;;20.60;93.60;;;;;;5055652;28;20127;-78
2022/06/24 02:23:55;;;;;;;0.20;0.20;;;20.60;93.50;;;;;;5076165;28;20475;-78
2022/06/24 02:26:21;;;;;;;0.20;0.20;;;20.60;92.90;;;;;;5076648;28;20040;-78
2022/06/24 02:28:47;;;;;;;0.20;0.20;;;20.60;93.50;;;;;;5076895;28;20047;-78
2022/06/24 02:31:13;;;;;;;0.30;0.30;;;20.60;93.90;;;;;;5076780;28;20044;-78
2022/06/24 02:33:39;;;;;;;0.57;0.57;;;20.50;94.10;;;;;;5076685;28;20041;-78
2022/06/24 02:36:05;;;;;;;0.53;0.53;;;20.60;93.60;;;;;;5076863;28;20044;-78
2022/06/24 02:38:32;;;;;;;0.40;0.40;;;20.60;93.40;;;;;;5076630;28;20044;-78
2022/06/24 02:40:58;;;;;;;0.20;0.20;;;20.60;93.40;;;;;;5076681;28;20439;-78
2022/06/24 02:43:37;;;;;;;0.20;0.20;;;20.70;94.00;;;;;;5076625;28;20036;-78
2022/06/24 02:46:08;;;;;;;0.30;0.30;;;20.70;94.00;;;;;;5076519;28;20044;-78
2022/06/24 02:48:35;;;;;;;0.30;0.30;;;20.70;93.10;;;;;;5076392;28;20136;-78
2022/06/24 02:51:03;;;;;;;0.30;0.30;;;20.70;94.20;;;;;;5076236;28;20049;-78
2022/06/24 02:53:30;;;;;;;0.60;0.57;;;20.80;93.80;;;;;;5076379;28;20052;-78
2022/06/24 02:56:00;;;;;;;0.30;0.30;;;20.80;93.70;;;;;;5076677;28;20048;-79
2022/06/24 02:58:26;;;;;;;0.30;0.30;;;20.80;94.10;;;;;;5076673;28;20044;-78
2022/06/24 03:00:52;;;;;;;0.20;0.20;;;20.80;93.90;;;;;;5076200;28;20048;-78
2022/06/24 03:03:19;;;;;;;0.20;0.20;;;20.90;93.40;;;;;;5076089;28;20049;-78
2022/06/24 03:05:46;;;;;;;0.30;0.30;;;20.90;93.80;;;;;;5076104;28;20099;-79
2022/06/24 03:08:13;;;;;;;0.20;0.20;;;20.90;93.60;;;;;;5076085;28;20044;-79
2022/06/24 03:10:39;;;;;;;0.30;0.30;;;20.90;93.10;;;;;;5076079;28;20045;-78
2022/06/24 03:13:05;;;;;;;0.20;0.20;;;20.90;92.50;;;;;;5076257;28;20086;-78
2022/06/24 03:15:31;;;;;;;0.20;0.20;;;20.90;92.70;;;;;;5076034;28;20504;-78
2022/06/24 03:17:57;;;;;;;0.30;0.30;;;20.90;93.60;;;;;;5075896;28;20044;-78
2022/06/24 03:20:23;;;;;;;0.30;0.30;;;20.90;93.30;;;;;;5075551;28;20060;-78
2022/06/24 03:22:49;;;;;;;0.20;0.20;;;20.90;93.40;;;;;;5075778;28;20053;-78
2022/06/24 03:25:14;;;;;;;0.30;0.30;;;20.90;93.00;;;;;;5075704;28;20626;-78
2022/06/24 03:27:40;;;;;;;0.30;0.30;;;20.90;92.50;;;;;;5075625;28;20047;-78
2022/06/24 03:30:08;;;;;;;0.60;0.60;;;20.90;92.60;;;;;;5075569;28;20040;-79
2022/06/24 03:32:34;;;;;;;0.30;0.30;;;20.90;93.10;;;;;;5075565;28;20047;-78
2022/06/24 03:35:00;;;;;;;0.20;0.20;;;20.90;93.30;;;;;;5074833;28;20512;-78
2022/06/24 03:37:26;;;;;;;0.20;0.20;;;20.90;93.20;;;;;;5075341;28;20048;-79
2022/06/24 03:39:52;;;;;;;0.30;0.30;;;20.80;92.90;;;;;;5075777;28;20044;-78
2022/06/24 03:42:18;;;;;;;0.20;0.20;;;20.90;94.40;;;;;;5075325;28;20090;-78
2022/06/24 03:44:43;;;;;;;0.30;0.30;;;20.90;93.80;;;;;;5075292;28;20040;-80
2022/06/24 03:47:09;;;;;;;0.30;0.30;;;20.80;93.30;;;;;;5075284;28;20098;-78
2022/06/24 03:49:34;;;;;;;0.30;0.30;;;20.90;94.00;;;;;;5075595;28;20071;-77
2022/06/24 03:52:00;;;;;;;0.20;0.20;;;21.00;94.70;;;;;;5075097;28;20105;-77
2022/06/24 03:54:26;;;;;;;0.77;0.40;;;21.10;94.60;;;;;;5075118;28;20052;-78
2022/06/24 03:56:52;;;;;;;0.20;0.20;;;21.00;95.20;;;;;;5075054;28;20041;-77
2022/06/24 03:59:17;;;;;;;0.20;0.20;;;21.10;95.00;;;;;;5075077;28;20197;-78
2022/06/24 04:01:43;;;;;;;0.30;0.30;;;21.10;94.70;;;;;;5075012;28;20044;-78
2022/06/24 04:04:09;;;;;;;0.30;0.30;;;21.00;94.70;;;;;;5075043;28;20044;-78
2022/06/24 04:06:35;;;;;;;0.47;0.47;;;21.10;94.10;;;;;;5056787;28;20476;-77
2022/06/24 04:09:00;;;;;;;0.20;0.20;;;21.10;94.50;;;;;;5074982;28;20404;-78
2022/06/24 04:11:26;;;;;;;0.20;0.20;;;21.10;94.40;;;;;;5074903;28;20127;-78
2022/06/24 04:13:51;;;;;;;0.30;0.30;;;21.10;95.00;;;;;;5056934;28;20572;-78
2022/06/24 04:16:17;;;;;;;0.20;0.20;;;21.20;95.10;;;;;;5074705;28;20098;-78
2022/06/24 04:18:43;;;;;;;0.20;0.20;;;21.10;95.90;;;;;;5074767;28;20044;-78
2022/06/24 04:21:13;;;;;;;0.20;0.20;;;21.20;95.50;;;;;;5074301;28;20044;-78
2022/06/24 04:23:39;;;;;;;0.30;0.30;;;21.20;95.20;;;;;;5074658;28;20044;-77
2022/06/24 04:26:05;;;;;;;0.30;0.30;;;21.30;96.40;;;;;;5074540;28;20094;-78
2022/06/24 04:28:31;;;;;;;0.40;0.40;;;21.30;97.30;;;;;;5074627;28;20420;-78
2022/06/24 04:30:57;;;;;;;0.20;0.20;;;21.30;96.80;;;;;;5074397;28;20044;-78
2022/06/24 04:33:22;;;;;;;0.20;0.20;;;21.50;97.20;;;;;;5074467;28;20048;-78
2022/06/24 04:35:48;;;;;;;0.20;0.20;;;21.50;98.00;;;;;;5074340;28;20048;-78
2022/06/24 04:38:14;;;;;;;0.30;0.30;;;21.60;96.60;;;;;;5074306;28;20048;-79
2022/06/24 04:40:40;;;;;;;0.20;0.20;;;21.60;96.90;;;;;;5056852;28;20456;-80
2022/06/24 04:43:06;;;;;;;0.20;0.20;;;21.60;97.10;;;;;;5074209;28;20044;-80
2022/06/24 04:45:31;;;;;;;0.40;0.30;;;21.70;96.70;;;;;;5073761;28;20048;-80
2022/06/24 04:47:57;;;;;;;0.20;0.20;;;21.70;96.50;;;;;;5056515;28;20053;-82
2022/06/24 04:50:23;;;;;;;0.40;0.40;;;21.70;96.10;;;;;;5056286;28;20040;-84
2022/06/24 04:52:49;;;;;;;0.30;0.30;;;21.80;95.10;;;;;;5039791;28;20044;-78
2022/06/24 04:55:14;;;;;;;0.23;0.23;;;21.80;96.10;;;;;;5074480;28;20048;-81
2022/06/24 04:57:40;;;;;;;0.40;0.40;;;21.70;96.10;;;;;;5074174;28;20380;-78
2022/06/24 05:00:06;;;;;;;0.40;0.40;;;21.90;97.20;;;;;;5074309;28;20048;-80
2022/06/24 05:02:32;;;;;;;0.30;0.30;;;21.90;99.20;;;;;;5056458;28;20044;-78
2022/06/24 05:04:57;;;;;;;0.27;0.27;;;22.00;99.90;;;;;;5073696;28;20086;-81
2022/06/24 05:07:23;;;;;;;0.47;0.47;;;22.00;99.90;;;;;;5074109;28;20048;-78
2022/06/24 05:09:48;;;;;;;0.47;0.47;;;22.00;99.90;;;;;;5074145;28;20135;-84
2022/06/24 05:12:14;;;;;;;0.20;0.20;;;22.00;99.90;;;;;;5073949;28;20116;-82
2022/06/24 05:14:40;;;;;;;0.40;0.40;;;21.90;99.90;;;;;;5073942;28;20047;-82
2022/06/24 05:17:05;;;;;;;0.20;0.20;;;21.90;99.90;;;;;;5056064;28;20040;-80
2022/06/24 05:19:31;;;;;;;0.20;0.20;;;21.80;99.90;;;;;;5073864;28;20045;-81
2022/06/24 05:21:57;;;;;;;0.30;0.30;;;21.80;99.90;;;;;;5055793;28;20135;-81
2022/06/24 05:24:23;;;;;;;0.40;0.40;;;21.80;99.90;;;;;;5074185;28;20044;-84
2022/06/24 05:26:49;;;;;;;0.25;0.25;;;21.80;99.90;;;;;;5073794;28;20047;-81
2022/06/24 05:29:15;;;;;;;0.50;0.50;;;21.70;99.90;;;;;;5073667;28;20041;-82
2022/06/24 05:31:40;;;;;;;0.20;0.20;;;21.60;99.90;;;;;;5056074;28;20040;-82
2022/06/24 05:34:09;;;;;;;0.27;0.27;;;21.50;99.90;;;;;;5073762;28;20128;-80
2022/06/24 05:36:36;;;;;;;2.30;0.77;;;21.50;99.90;;;;;;5055990;28;20041;-80
2022/06/24 05:39:02;;;;;;;;;;;21.50;99.90;;;;;;5074018;28;20052;-79
2022/06/24 05:41:28;;;;;;;0.20;0.20;;;21.40;99.90;;;;;;5073425;28;19920;-77
2022/06/24 05:43:55;;;;;;;0.30;0.30;;;21.40;99.90;;;;;;5073563;28;20487;-79
2022/06/24 05:46:20;;;;;;;0.20;0.20;;;21.40;99.90;;;;;;5071822;28;20041;-80
2022/06/24 05:48:46;;;;;;;0.20;0.20;;;21.50;99.90;;;;;;5055308;28;20135;-80
2022/06/24 05:51:15;;;;;;;0.20;0.20;;;21.30;99.90;;;;;;5072911;28;20083;-84
2022/06/24 05:56:26;;;;;;;0.20;0.20;;;21.30;99.90;;;;;;5072946;28;20048;-81
2022/06/24 05:58:51;;;;;;;0.30;0.30;;;21.30;99.90;;;;;;5058789;28;20048;-81
2022/06/24 06:01:17;;;;;;;0.20;0.20;;;21.20;99.90;;;;;;5059181;28;20139;-86
2022/06/24 06:03:43;;;;;;;0.20;0.20;;;21.30;99.90;;;;;;5059510;28;20049;-83
2022/06/24 06:06:09;;;;;;;0.30;0.30;;;21.30;99.90;;;;;;5042357;28;20127;-80
2022/06/24 06:08:36;;;;;;;0.20;0.20;;;21.30;99.90;;;;;;5042510;28;20502;-81
2022/06/24 06:11:14;;;;;;;0.20;0.20;;;21.30;99.90;;;;;;5059423;28;20079;-82
2022/06/24 06:13:41;;;;;;;0.20;0.20;;;21.30;99.90;;;;;;5076869;28;20088;-80
2022/06/24 06:16:07;;;;;;;0.30;0.30;;;21.30;99.90;;;;;;5076843;28;20056;-78
2022/06/24 06:18:33;;;;;;;0.30;0.30;;;21.30;99.90;;;;;;5077224;28;20067;-85
2022/06/24 06:21:00;;;;;;;0.20;0.20;;;21.30;99.90;;;;;;5059335;28;20476;-80
2022/06/24 06:23:28;;;;;;;0.20;0.20;;;21.40;99.90;;;;;;5043121;28;20040;-84
2022/06/24 06:25:57;;;;;;;0.22;0.22;;;21.30;99.90;;;;;;5042525;28;20074;-79
2022/06/24 06:28:22;;;;;;;0.40;0.40;;;21.20;99.90;;;;;;5058945;28;20052;-79
2022/06/24 06:30:48;;;;;;;0.20;0.20;;;21.20;99.90;;;;;;5059170;28;20036;-79
2022/06/24 06:33:14;;;;;;;0.30;0.30;;;21.10;99.90;;;;;;5076621;28;20114;-75
2022/06/24 06:35:40;;;;;;;0.20;0.20;;;21.10;99.90;;;;;;5058920;28;20131;-78
2022/06/24 06:38:05;;;;;;;0.20;0.20;;;21.10;99.90;;;;;;5058140;28;20492;-81
2022/06/24 06:40:35;;;;;;;0.30;0.30;;;21.10;99.90;;;;;;5059041;28;20504;-79
2022/06/24 06:43:01;;;;;;;0.35;0.35;;;21.00;99.90;;;;;;5076506;28;20040;-81
2022/06/24 06:45:30;;;;;;;0.20;0.20;;;21.00;99.90;;;;;;5058313;28;20055;-76
2022/06/24 06:47:55;;;;;;;0.60;0.60;;;21.00;99.90;;;;;;5075693;28;20086;-78
2022/06/24 06:50:21;;;;;;;0.20;0.20;;;21.00;99.90;;;;;;5058559;28;20459;-78
2022/06/24 06:52:46;;;;;;;0.20;0.20;;;21.00;99.90;;;;;;5076020;28;20052;-78
2022/06/24 06:55:12;;;;;;;0.20;0.20;;;21.00;99.90;;;;;;5059075;28;20101;-77
2022/06/24 06:57:38;;;;;;;0.20;0.20;;;20.90;99.90;;;;;;5074438;28;20044;-79
2022/06/24 07:00:05;;;;;;;0.20;0.20;;;20.90;99.90;;;;;;5058477;28;20072;-77
2022/06/24 07:02:31;;;;;;;0.20;0.20;;;20.90;99.90;;;;;;5058127;28;20056;-77
2022/06/24 07:04:57;;;;;;;0.20;0.20;;;20.90;99.90;;;;;;5066155;28;20041;-79
2022/06/24 07:07:22;;;;;;;1.20;0.57;;;20.90;99.90;;;;;;5055131;28;20098;-79
2022/06/24 07:09:48;;;;;;;0.20;0.20;;;20.90;99.90;;;;;;5037149;28;20041;-80
2022/06/24 07:12:14;;;;;;;0.27;0.27;;;20.80;99.90;;;;;;5037884;28;20049;-80
2022/06/24 07:14:41;;;;;;;0.20;0.20;;;20.90;99.90;;;;;;5055525;28;20052;-86
2022/06/24 07:17:07;;;;;;;0.20;0.20;;;20.80;99.90;;;;;;5037962;28;20049;-84
2022/06/24 07:19:32;;;;;;;0.43;0.43;;;20.80;99.90;;;;;;5054435;28;20497;-80
2022/06/24 07:21:59;;;;;;;0.20;0.20;;;20.70;99.90;;;;;;5038491;28;20283;-79
2022/06/24 07:24:24;;;;;;;0.30;0.30;;;20.70;99.90;;;;;;5039070;28;20477;-80
2022/06/24 07:26:50;;;;;;;0.20;0.20;;;20.60;99.90;;;;;;5038281;28;20175;-80
2022/06/24 07:29:16;;;;;;;0.30;0.30;;;20.60;99.90;;;;;;5037608;28;20045;-79
2022/06/24 07:31:41;;;;;;;0.20;0.20;;;20.70;99.90;;;;;;5037542;28;20045;-80
2022/06/24 07:34:07;;;;;;;0.20;0.20;;;20.70;99.90;;;;;;5054588;28;20041;-80
2022/06/24 07:36:32;;;;;;;0.47;0.30;;;20.70;99.90;;;;;;5021953;28;20032;-80
2022/06/24 07:38:59;;;;;;;0.20;0.20;;;20.80;99.90;;;;;;5041263;28;20496;-79
2022/06/24 07:41:25;;;;;;;0.30;0.30;;;20.80;99.90;;;;;;5057836;28;20098;-84
2022/06/24 07:43:50;;;;;;;0.20;0.20;;;20.80;99.90;;;;;;5050910;28;20044;-81
2022/06/24 07:46:17;;;;;;;0.47;0.47;;;20.90;99.90;;;;;;5021125;28;20049;-80
2022/06/24 07:48:42;;;;;;;0.20;0.20;;;20.90;99.90;;;;;;5037587;28;20045;-83
2022/06/24 07:51:17;;;;;;;0.20;0.20;;;21.00;99.90;;;;;;5021053;28;20504;-80
2022/06/24 07:53:44;;;;;;;0.30;0.30;;;21.00;99.90;;;;;;5037588;28;20049;-78
2022/06/24 07:58:54;;;;;;;0.30;0.30;;;21.10;99.90;;;;;;5055507;28;20057;-86
2022/06/24 08:01:20;;;;;;;0.30;0.30;;;21.10;99.90;;;;;;5037642;28;20051;-81
2022/06/24 08:03:45;;;;;;;0.40;0.40;;;21.20;99.90;;;;;;5037153;28;20378;-79
2022/06/24 08:06:11;;;;;;;0.23;0.23;;;21.10;99.90;;;;;;5037024;28;20045;-82
2022/06/24 08:08:37;;;;;;;0.30;0.30;;;21.10;99.90;;;;;;5037511;28;20457;-79
2022/06/24 08:11:04;;;;;;;0.50;0.50;;;21.10;99.90;;;;;;5054604;28;20057;-78
2022/06/24 08:13:30;;;;;;;0.20;0.20;;;21.10;99.90;;;;;;5037431;28;20084;-79
2022/06/24 08:15:56;;;;;;;0.30;0.30;;;21.10;99.90;;;;;;5036858;28;20045;-77
2022/06/24 08:18:23;;;;;;;0.47;0.47;;;21.00;99.90;;;;;;5037025;28;20120;-78
2022/06/24 08:20:49;;;;;;;0.35;0.35;;;20.90;99.90;;;;;;5054661;28;20056;-78
2022/06/24 08:23:15;;;;;;;0.70;0.70;;;20.80;99.90;;;;;;5054433;28;20071;-79
2022/06/24 08:25:41;;;;;;;0.30;0.30;;;20.80;99.90;;;;;;5036519;28;20045;-83
2022/06/24 08:28:06;;;;;;;0.43;0.43;;;20.80;99.90;;;;;;5052151;28;20040;-85
2022/06/24 08:30:32;;;;;;;0.30;0.30;;;20.70;99.90;;;;;;5056798;28;20523;-84
2022/06/24 08:32:58;;;;;;;1.70;0.30;;;20.70;99.90;;;;;;5040335;28;20044;-88
2022/06/24 08:35:23;;;;;;;0.83;0.60;;;20.70;99.90;;;;;;5040819;28;20052;-82
2022/06/24 08:37:49;;;;;;;0.30;0.30;;;20.70;99.90;;;;;;5073889;28;20041;-84
2022/06/24 08:40:16;;;;;;;0.20;0.20;;;20.90;99.90;;;;;;5073720;28;20556;-82
2022/06/24 08:42:44;;;;;;;0.20;0.20;;;20.80;99.90;;;;;;5056238;28;20052;-83
2022/06/24 08:45:13;;;;;;;0.30;0.30;;;20.80;99.90;;;;;;5074338;28;20048;-82
2022/06/24 08:47:39;;;;;;;0.30;0.30;;;20.70;99.90;;;;;;5039956;28;20052;-85
2022/06/24 08:50:08;;;;;;;0.30;0.30;;;20.80;99.90;;;;;;5039413;28;20049;-81
2022/06/24 08:52:34;;;;;;;0.30;0.30;;;20.80;99.90;;;;;;5040021;28;20051;-88
2022/06/24 08:55:02;;;;;;;0.20;0.20;;;20.80;99.90;;;;;;5056128;28;20131;-78
2022/06/24 08:57:28;;;;;;;0.40;0.40;;;21.00;99.90;;;;;;5056090;28;20072;-88
2022/06/24 08:59:53;;;;;;;0.30;0.30;;;21.00;99.90;;;;;;5056149;28;20087;-86
2022/06/24 09:02:19;;;;;;;0.50;0.50;;;21.00;99.90;;;;;;5056027;28;20495;-83
2022/06/24 09:04:46;;;;;;;0.20;0.20;;;21.00;99.90;;;;;;5039098;28;20044;-89
2022/06/24 09:07:38;;;;;;;0.30;0.30;;;21.00;99.90;;;;;;5057293;28;20469;-88
2022/06/24 09:10:09;;;;;;;0.35;0.35;;;21.10;99.90;;;;;;5051854;28;20056;-92
2022/06/24 09:12:39;;;;;;;0.90;0.82;;;21.00;99.90;;;;;;5040244;28;20051;-85
2022/06/24 09:15:07;;;;;;;0.20;0.20;;;21.10;99.90;;;;;;5039357;28;20126;-83
2022/06/24 09:17:33;;;;;;;0.40;0.40;;;21.10;99.90;;;;;;5055852;28;20048;-82
2022/06/24 09:20:05;;;;;;;;;;;21.20;99.90;;;;;;5055944;28;20048;-84
2022/06/24 09:22:32;;;;;;;0.52;0.52;;;21.20;99.90;;;;;;5056049;28;19927;-81
2022/06/24 09:25:00;;;;;;;0.22;0.22;;;21.10;99.90;;;;;;5055757;28;20033;-84
2022/06/24 09:27:26;;;;;;;0.82;0.82;;;21.10;99.90;;;;;;5056541;28;20094;-84
2022/06/24 09:29:52;;;;;;;1.35;1.23;;;21.10;99.90;;;;;;5074395;28;20040;-82
2022/06/24 09:32:18;;;;;;;0.30;0.30;;;21.00;99.90;;;;;;5074055;28;20093;-82
2022/06/24 09:35:03;;;;;;;0.30;0.30;;;21.00;99.90;;;;;;5042175;28;20129;-84
2022/06/24 09:37:46;;;;;;;0.30;0.30;;;20.90;99.90;;;;;;5075440;28;20094;-84
2022/06/24 09:40:22;;;;;;;0.30;0.30;;;20.90;99.90;;;;;;5074420;28;20378;-84
2022/06/24 09:43:09;;;;;;;0.27;0.27;;;20.90;99.90;;;;;;5055841;28;20158;-86
2022/06/24 09:45:46;;;;;;;0.60;0.35;;;20.90;99.90;;;;;;5040304;28;20496;-89
2022/06/24 09:48:26;;;;;;;0.28;0.28;;;20.80;99.90;;;;;;5039706;28;20157;-87
2022/06/24 09:50:56;;;;;;;0.20;0.20;;;20.80;99.90;;;;;;5055944;28;20044;-85
2022/06/24 09:53:25;;;;;;;0.30;0.30;;;20.80;99.90;;;;;;5039165;28;20487;-84
2022/06/24 09:55:51;;;;;;;0.35;0.35;;;20.90;99.90;;;;;;5038586;28;20476;-85
2022/06/24 09:58:17;;;;;;;0.20;0.20;;;20.80;99.90;;;;;;5053991;28;20054;-82
2022/06/24 10:00:45;;;;;;;0.30;0.30;;;20.50;99.90;;;;;;5055591;28;20052;-83
2022/06/24 10:03:12;;;;;;;0.20;0.20;;;20.50;99.90;;;;;;5072802;28;20076;-83
2022/06/24 10:05:48;;;;;;;0.20;0.20;;;20.30;99.90;;;;;;5025119;28;20520;-81
2022/06/24 10:08:16;;;;;;;0.57;0.35;;;20.20;99.90;;;;;;5032374;28;20056;-79
2022/06/24 10:10:50;;;;;;;0.20;0.20;;;20.10;99.90;;;;;;5035417;28;20077;-79
2022/06/24 10:13:31;;;;;;;0.20;0.20;;;20.00;99.90;;;;;;5032056;28;20068;-78
2022/06/24 10:16:02;;;;;;;0.28;0.28;;;19.90;99.90;;;;;;5015318;28;20103;-79
2022/06/24 10:18:43;;;;;;;0.20;0.20;;;19.80;99.90;;;;;;5015637;28;20405;-82
2022/06/24 10:21:11;;;;;;;0.20;0.20;;;19.80;99.90;;;;;;5015297;28;20045;-82
2022/06/24 10:23:48;;;;;;;0.30;0.30;;;19.70;99.90;;;;;;4998886;28;20052;-79
2022/06/24 10:26:22;;;;;;;0.28;0.28;;;19.70;99.90;;;;;;5015387;28;20458;-79
2022/06/24 10:29:14;;;;;;;0.20;0.20;;;19.70;99.90;;;;;;5015388;28;20046;-76
2022/06/24 10:31:43;;;;;;;0.20;0.20;;;19.70;99.90;;;;;;5012137;28;20049;-75
2022/06/24 10:34:26;;;;;;;0.20;0.20;;;19.70;99.90;;;;;;5032735;28;20103;-78
2022/06/24 10:36:54;;;;;;;0.20;0.20;;;19.70;99.90;;;;;;5027009;28;20037;-75
2022/06/24 10:39:22;;;;;;;0.20;0.20;;;19.70;99.90;;;;;;5023966;28;20045;-75
2022/06/24 10:42:04;;;;;;;0.30;0.30;;;19.70;99.90;;;;;;5032522;28;20042;-72
2022/06/24 10:44:32;;;;;;;0.20;0.20;;;19.60;99.90;;;;;;5033283;28;20053;-75
2022/06/24 10:47:10;;;;;;;0.20;0.20;;;19.60;99.90;;;;;;5036256;28;20041;-75
2022/06/24 10:50:24;;;;;;;0.20;0.20;;;19.70;99.90;;;;;;5042807;28;20473;-79
2022/06/24 10:52:48;;;;;;;0.20;0.20;;;19.60;99.90;;;;;;5032942;28;20085;-78
2022/06/24 10:55:28;;;;;;;0.30;0.30;;;19.60;99.90;;;;;;5036008;28;20054;-74
2022/06/24 10:58:04;;;;;;;0.20;0.20;;;19.50;99.90;;;;;;5018413;28;20088;-76
2022/06/24 11:00:39;;;;;;;0.43;0.43;;;19.40;99.90;;;;;;5046990;28;20049;-80
2022/06/24 11:03:04;;;;;;;0.20;0.20;;;19.50;99.90;;;;;;5051334;28;20094;-79
2022/06/24 11:05:38;;;;;;;0.30;0.30;;;19.30;99.90;;;;;;5060605;28;20060;-80
2022/06/24 11:08:12;;;;;;;0.30;0.30;;;19.40;99.90;;;;;;5074153;28;20166;-85
2022/06/24 11:10:38;;;;;;;0.20;0.20;;;19.30;99.90;;;;;;5057946;28;20131;-85
2022/06/24 11:13:04;;;;;;;0.30;0.30;;;19.40;99.90;;;;;;5074801;28;20534;-84
2022/06/24 11:15:43;;;;;;;0.43;0.43;;;19.50;99.90;;;;;;5045322;28;20045;-81
2022/06/24 11:18:14;;;;;;;0.20;0.20;;;19.40;99.90;;;;;;5094169;28;20507;-77
2022/06/24 11:20:43;;;;;;;0.20;0.20;;;19.40;99.90;;;;;;5077818;28;20545;-78
2022/06/24 11:23:14;;;;;;;0.20;0.20;;;19.50;99.90;;;;;;5077755;28;20044;-83
2022/06/24 11:25:47;;;;;;;0.30;0.30;;;19.60;99.90;;;;;;5077877;28;20404;-83
2022/06/24 11:28:23;;;;;;;0.40;0.40;;;19.80;99.90;;;;;;5078029;28;20540;-85
2022/06/24 11:30:50;;;;;;;0.57;0.50;;;20.00;99.90;;;;;;5095792;28;20369;-85
2022/06/24 11:33:16;;;;;;;0.20;0.20;;;20.30;99.90;;;;;;5078491;28;20043;-81
2022/06/24 11:35:42;;;;;;;0.40;0.40;;;20.80;99.90;;;;;;5095452;28;20499;-80
2022/06/24 11:38:09;;;;;;;0.20;0.20;;;21.10;99.90;;;;;;5095522;28;20458;-79
2022/06/24 11:40:36;;;;;;;0.20;0.20;;;21.30;99.90;;;;;;5094140;28;20048;-78
2022/06/24 11:43:04;;;;;;;0.20;0.20;;;21.30;99.90;;;;;;5095610;28;20047;-79
2022/06/24 11:45:31;;;;;;;0.20;0.20;;;21.40;99.90;;;;;;5077861;28;20154;-82
2022/06/24 11:47:57;;;;;;;0.20;0.20;;;21.50;99.90;;;;;;5077632;28;20513;-81
2022/06/24 11:50:23;;;;;;;0.23;0.23;;;21.50;99.90;;;;;;5078151;28;20047;-83
2022/06/24 11:52:49;;;;;;;0.20;0.20;;;21.50;99.90;;;;;;5061199;28;20469;-80
2022/06/24 11:55:36;;;;;;;0.27;0.27;;;21.60;99.90;;;;;;5077302;28;20130;-74
2022/06/24 11:58:03;;;;;;;0.20;0.20;;;21.70;99.90;;;;;;5095025;28;20047;-75
2022/06/24 12:00:32;;;;;;;1.17;0.50;;;21.70;99.90;;;;;;5094793;28;20499;-74
2022/06/24 12:02:59;;;;;;;0.30;0.30;;;21.70;99.90;;;;;;5094822;28;20032;-74
2022/06/24 12:05:26;;;;;;;;;;;21.80;99.90;;;;;;5095092;28;20063;-74
2022/06/24 12:07:52;;;;;;;0.20;0.20;;;21.90;99.90;;;;;;5094983;28;19926;-75
2022/06/24 12:10:18;;;;;;;0.35;0.35;;;21.90;99.90;;;;;;5094891;28;20048;-75
2022/06/24 12:13:00;;;;;;;0.63;0.63;;;22.00;99.90;;;;;;5094981;28;20047;-74
2022/06/24 12:15:34;;;;;;;0.30;0.30;;;22.10;99.90;;;;;;5094615;28;20048;-75
2022/06/24 12:18:00;;;;;;;0.30;0.30;;;22.30;99.90;;;;;;5094170;28;20080;-74
2022/06/24 12:20:28;;;;;;;0.20;0.20;;;22.40;99.90;;;;;;5094766;28;20132;-75
2022/06/24 12:23:16;;;;;;;0.20;0.20;;;22.40;99.90;;;;;;5094674;28;20080;-74
2022/06/24 12:25:44;;;;;;;0.30;0.30;;;22.60;99.90;;;;;;5094682;28;20082;-74
2022/06/24 12:28:21;;;;;;;0.45;0.45;;;22.70;99.90;;;;;;5094276;28;20059;-75
2022/06/24 12:31:03;;;;;;;0.35;0.35;;;22.90;99.90;;;;;;5094643;28;20050;-74
2022/06/24 12:33:34;;;;;;;0.20;0.20;;;22.90;99.90;;;;;;5094371;28;20101;-75
2022/06/24 12:36:11;;;;;;;0.47;0.40;;;23.00;99.90;;;;;;5094388;28;20073;-75
2022/06/24 12:38:47;;;;;;;0.20;0.20;;;23.00;99.90;;;;;;5094258;28;20059;-76
2022/06/24 12:41:16;;;;;;;0.30;0.30;;;23.00;99.90;;;;;;5094561;28;20456;-75
2022/06/24 12:43:53;;;;;;;0.20;0.20;;;23.10;99.90;;;;;;5094202;28;20177;-75
2022/06/24 12:46:20;;;;;;;0.20;0.20;;;23.10;99.90;;;;;;5042990;28;20060;-75
2022/06/24 12:51:30;;;;;;;0.20;0.20;;;23.30;99.90;;;;;;5094100;28;20050;-76
2022/06/24 12:53:56;;;;;;;0.20;0.20;;;23.30;99.90;;;;;;5094168;28;20127;-74
2022/06/24 12:56:22;;;;;;;0.20;0.20;;;23.30;99.90;;;;;;5093919;28;20044;-74
2022/06/24 12:58:52;;;;;;;0.20;0.20;;;23.30;99.90;;;;;;5075777;28;20048;-75
2022/06/24 13:01:18;;;;;;;0.20;0.20;;;23.20;99.90;;;;;;5094034;28;20371;-75
2022/06/24 13:03:44;;;;;;;;;;;23.10;99.90;;;;;;5094340;28;20059;-75